Time;durP1;ratioP1;P1;durP2;ratioP2;P2;SDS_P1;SDS_P2;PMS_P1;PMS_P2;Temp;Humidity;BMP_temperature;BMP_pressure;BME280_temperature;BME280_humidity;BME280_pressure;Samples;Min_cycle;Max_cycle;Signal;HPM_P1;HPM_P2
2023/08/02 00:00:30;;;;;;;814.20;765.97;;;14.80;99.90;;;;;;4992641;28;20457;-71
2023/08/02 00:02:56;;;;;;;830.53;781.03;;;14.80;99.90;;;;;;4992503;28;20821;-71
2023/08/02 00:05:23;;;;;;;802.30;754.77;;;14.80;99.90;;;;;;4992591;28;20451;-71
2023/08/02 00:07:50;;;;;;;811.47;762.97;;;14.80;99.90;;;;;;4995620;28;20457;-71
2023/08/02 00:10:19;;;;;;;811.67;762.77;;;14.90;99.90;;;;;;4995428;28;20584;-71
2023/08/02 00:12:45;;;;;;;812.43;763.37;;;14.90;99.90;;;;;;4983320;28;20459;-71
2023/08/02 00:15:12;;;;;;;770.10;724.60;;;14.90;99.90;;;;;;4977117;28;20450;-71
2023/08/02 00:17:39;;;;;;;765.53;721.50;;;14.90;99.90;;;;;;4977049;28;20466;-71
2023/08/02 00:20:08;;;;;;;764.33;720.23;;;14.90;99.90;;;;;;4990331;28;20501;-71
2023/08/02 00:22:35;;;;;;;785.50;739.27;;;14.80;99.90;;;;;;4996390;28;20740;-71
2023/08/02 00:25:02;;;;;;;799.13;751.67;;;14.70;99.90;;;;;;4996201;28;20466;-71
2023/08/02 00:27:30;;;;;;;805.60;758.27;;;14.70;99.90;;;;;;4996240;28;20581;-71
2023/08/02 00:29:57;;;;;;;805.83;758.37;;;14.60;99.90;;;;;;4996079;28;20489;-71
2023/08/02 00:32:24;;;;;;;811.07;763.27;;;14.60;99.90;;;;;;4996153;28;20537;-71
2023/08/02 00:34:54;;;;;;;819.97;771.37;;;14.60;99.90;;;;;;4995914;28;20450;-71
2023/08/02 00:37:21;;;;;;;838.00;787.43;;;14.50;99.90;;;;;;4995058;28;20459;-71
2023/08/02 00:39:51;;;;;;;846.30;794.50;;;14.50;99.90;;;;;;4995730;28;20827;-71
2023/08/02 00:42:18;;;;;;;856.50;803.50;;;14.40;99.90;;;;;;4995936;28;20457;-71
2023/08/02 00:44:46;;;;;;;864.97;811.20;;;14.40;99.90;;;;;;4995587;28;20625;-71
2023/08/02 00:47:13;;;;;;;865.50;811.77;;;14.40;99.90;;;;;;4995948;28;20458;-72
2023/08/02 00:49:40;;;;;;;851.23;798.67;;;14.40;99.90;;;;;;4995640;28;20520;-71
2023/08/02 00:52:07;;;;;;;851.57;798.57;;;14.40;99.90;;;;;;4990321;28;20547;-71
2023/08/02 00:54:34;;;;;;;890.23;834.17;;;14.30;99.90;;;;;;4976580;28;20459;-71
2023/08/02 00:57:01;;;;;;;885.60;829.57;;;14.30;99.90;;;;;;4976170;28;20447;-71
2023/08/02 00:59:28;;;;;;;874.30;819.47;;;14.30;99.90;;;;;;4976252;28;20457;-71
2023/08/02 01:01:57;;;;;;;870.60;815.57;;;14.30;99.90;;;;;;4976118;28;20455;-71
2023/08/02 01:04:24;;;;;;;873.27;817.60;;;14.40;99.90;;;;;;4976005;28;20448;-71
2023/08/02 01:06:58;;;;;;;878.57;822.70;;;14.40;99.90;;;;;;4976016;28;20453;-71
2023/08/02 01:09:28;;;;;;;868.40;812.87;;;14.50;99.90;;;;;;4987145;28;20453;-71
2023/08/02 01:12:02;;;;;;;858.60;803.63;;;14.50;99.90;;;;;;4995286;28;20490;-71
2023/08/02 01:14:31;;;;;;;853.20;798.93;;;14.60;99.90;;;;;;4995507;28;20458;-71
2023/08/02 01:17:01;;;;;;;827.70;775.60;;;14.70;99.90;;;;;;4995317;28;20450;-71
2023/08/02 01:19:27;;;;;;;812.17;761.63;;;14.80;99.90;;;;;;4994307;28;20521;-71
2023/08/02 01:21:56;;;;;;;832.53;781.00;;;14.90;99.90;;;;;;4995294;28;20529;-71
2023/08/02 01:24:26;;;;;;;819.47;768.47;;;14.90;99.90;;;;;;4989074;28;20462;-71
2023/08/02 01:26:54;;;;;;;820.67;770.00;;;15.00;99.90;;;;;;4976090;28;20447;-71
2023/08/02 01:29:24;;;;;;;792.83;744.60;;;15.00;99.90;;;;;;4975613;28;20490;-71
2023/08/02 01:31:52;;;;;;;761.33;715.40;;;15.10;99.90;;;;;;4975354;28;20848;-71
2023/08/02 01:34:19;;;;;;;745.47;701.87;;;15.20;99.90;;;;;;4988188;28;20526;-71
2023/08/02 01:36:46;;;;;;;712.63;671.47;;;15.20;99.90;;;;;;4995022;28;20486;-71
2023/08/02 01:39:16;;;;;;;695.67;656.50;;;15.30;99.90;;;;;;4994850;28;20456;-71
2023/08/02 01:41:43;;;;;;;685.73;647.77;;;15.30;99.90;;;;;;4992346;28;21026;-71
2023/08/02 01:44:10;;;;;;;677.33;639.53;;;15.30;99.90;;;;;;4975735;28;20486;-71
2023/08/02 01:46:37;;;;;;;667.90;632.00;;;15.30;99.90;;;;;;4975334;28;20461;-71
2023/08/02 01:49:03;;;;;;;645.23;610.93;;;15.30;99.90;;;;;;4975352;28;20462;-71
2023/08/02 01:51:30;;;;;;;632.23;599.57;;;15.30;99.90;;;;;;4988940;28;20471;-71
2023/08/02 01:53:57;;;;;;;651.33;617.43;;;15.40;99.90;;;;;;4994826;28;20541;-71
2023/08/02 01:56:25;;;;;;;631.20;599.07;;;15.40;99.90;;;;;;4994588;28;20450;-72
2023/08/02 01:58:52;;;;;;;597.43;567.53;;;15.40;99.90;;;;;;4994534;28;20450;-71
2023/08/02 02:01:19;;;;;;;558.83;531.63;;;15.40;99.90;;;;;;4992175;28;20446;-71
2023/08/02 02:03:46;;;;;;;582.77;554.70;;;15.40;99.90;;;;;;4975021;28;20537;-71
2023/08/02 02:06:12;;;;;;;587.03;558.17;;;15.40;99.90;;;;;;4974808;28;20823;-71
2023/08/02 02:08:39;;;;;;;589.30;560.40;;;15.40;99.90;;;;;;4974831;28;20451;-71
2023/08/02 02:11:07;;;;;;;592.43;562.77;;;15.40;99.90;;;;;;4974859;28;20490;-71
2023/08/02 02:13:35;;;;;;;595.93;566.57;;;15.40;99.90;;;;;;4985134;28;20536;-72
2023/08/02 02:16:02;;;;;;;563.63;535.73;;;15.40;99.90;;;;;;4994211;28;20457;-71
2023/08/02 02:18:29;;;;;;;527.50;502.10;;;15.40;99.90;;;;;;4993957;28;20464;-71
2023/08/02 02:20:56;;;;;;;503.23;480.13;;;15.40;99.90;;;;;;4993542;28;20955;-71
2023/08/02 02:23:23;;;;;;;530.10;505.03;;;15.40;99.90;;;;;;4994106;28;20462;-71
2023/08/02 02:25:51;;;;;;;543.87;517.67;;;15.40;99.90;;;;;;4994001;28;20450;-71
2023/08/02 02:28:19;;;;;;;526.00;500.70;;;15.30;99.90;;;;;;4993859;28;21041;-71
2023/08/02 02:30:49;;;;;;;534.17;508.37;;;15.30;99.90;;;;;;4992740;28;20486;-72
2023/08/02 02:33:16;;;;;;;550.63;524.27;;;15.30;99.90;;;;;;4978511;28;20462;-71
2023/08/02 02:35:43;;;;;;;547.10;520.57;;;15.20;99.90;;;;;;4974636;28;20542;-71
2023/08/02 02:38:10;;;;;;;555.60;528.20;;;15.20;99.90;;;;;;4974566;28;20461;-71
2023/08/02 02:40:36;;;;;;;548.20;521.17;;;15.30;99.90;;;;;;4974277;28;20451;-71
2023/08/02 02:43:03;;;;;;;521.07;495.77;;;15.30;99.90;;;;;;4974093;28;20959;-71
2023/08/02 02:45:30;;;;;;;495.03;471.77;;;15.30;99.90;;;;;;4974219;28;20451;-71
2023/08/02 02:47:58;;;;;;;454.37;433.77;;;15.40;99.90;;;;;;4973918;28;20545;-72
2023/08/02 02:50:25;;;;;;;446.70;427.00;;;15.40;99.90;;;;;;4974312;28;20479;-72
2023/08/02 02:52:52;;;;;;;437.77;418.30;;;15.50;99.90;;;;;;4988093;28;20482;-71
2023/08/02 02:55:19;;;;;;;419.97;401.37;;;15.50;99.90;;;;;;4993500;28;20451;-71
2023/08/02 02:57:46;;;;;;;390.40;374.00;;;15.60;99.90;;;;;;4993369;28;20501;-71
2023/08/02 03:00:13;;;;;;;376.30;360.40;;;15.60;99.90;;;;;;4992846;28;20450;-71
2023/08/02 03:02:40;;;;;;;345.20;330.90;;;15.70;99.90;;;;;;4985375;28;20542;-71
2023/08/02 03:05:09;;;;;;;321.70;308.50;;;15.70;99.90;;;;;;4987316;28;20492;-71
2023/08/02 03:07:36;;;;;;;302.80;290.70;;;15.70;99.90;;;;;;4992621;28;20494;-71
2023/08/02 03:10:03;;;;;;;283.63;272.50;;;15.80;99.90;;;;;;4991556;28;20549;-71
2023/08/02 03:12:30;;;;;;;254.93;245.27;;;15.80;99.90;;;;;;4993109;28;20568;-71
2023/08/02 03:14:56;;;;;;;245.53;235.37;;;15.80;99.90;;;;;;4993033;28;20524;-71
2023/08/02 03:17:23;;;;;;;223.83;215.43;;;15.80;99.90;;;;;;4992908;28;20604;-71
2023/08/02 03:19:50;;;;;;;226.53;218.17;;;15.80;99.90;;;;;;4985486;28;20455;-71
2023/08/02 03:22:18;;;;;;;218.50;210.10;;;15.80;99.90;;;;;;4992828;28;20449;-71
2023/08/02 03:24:45;;;;;;;202.17;194.93;;;15.80;99.90;;;;;;4993147;28;20549;-71
2023/08/02 03:27:12;;;;;;;201.47;194.17;;;15.80;99.90;;;;;;4976939;28;20451;-71
2023/08/02 03:29:39;;;;;;;217.33;209.50;;;15.80;99.90;;;;;;4973310;28;20458;-71
2023/08/02 03:32:07;;;;;;;232.23;223.57;;;15.80;99.90;;;;;;4973476;28;20855;-71
2023/08/02 03:34:34;;;;;;;233.90;224.97;;;15.80;99.90;;;;;;4978143;28;20537;-72
2023/08/02 03:37:01;;;;;;;238.90;229.60;;;15.80;99.90;;;;;;4982824;28;20477;-71
2023/08/02 03:39:29;;;;;;;257.33;246.90;;;15.70;99.90;;;;;;4973290;28;20509;-72
2023/08/02 03:41:56;;;;;;;266.20;255.47;;;15.70;99.90;;;;;;4972533;28;20458;-72
2023/08/02 03:44:23;;;;;;;273.53;262.37;;;15.60;99.90;;;;;;4976376;28;20621;-71
2023/08/02 03:46:50;;;;;;;290.40;278.47;;;15.60;99.90;;;;;;4992598;28;20795;-71
2023/08/02 03:49:16;;;;;;;295.73;283.17;;;15.60;99.90;;;;;;4977205;28;20478;-71
2023/08/02 03:51:43;;;;;;;308.87;295.07;;;15.50;99.90;;;;;;4975612;28;20479;-71
2023/08/02 03:54:10;;;;;;;320.70;305.97;;;15.50;99.90;;;;;;4992717;28;20205;-71
2023/08/02 03:56:38;;;;;;;323.47;308.43;;;15.40;99.90;;;;;;4992579;28;20454;-71
2023/08/02 03:59:05;;;;;;;334.07;317.97;;;15.40;99.90;;;;;;4992609;28;20516;-71
2023/08/02 04:01:31;;;;;;;354.20;336.70;;;15.40;99.90;;;;;;4992742;28;20799;-71
2023/08/02 04:03:58;;;;;;;351.13;333.77;;;15.30;99.90;;;;;;4989587;28;20462;-71
2023/08/02 04:06:25;;;;;;;360.40;342.17;;;15.40;99.90;;;;;;4973608;28;20751;-71
2023/08/02 04:08:52;;;;;;;373.07;354.07;;;15.40;99.90;;;;;;4977458;28;20473;-71
2023/08/02 04:11:19;;;;;;;375.60;356.00;;;15.40;99.90;;;;;;4980045;28;21096;-71
2023/08/02 04:13:47;;;;;;;391.67;370.97;;;15.40;99.90;;;;;;4976565;28;20457;-72
2023/08/02 04:16:14;;;;;;;402.53;380.43;;;15.40;99.90;;;;;;4989914;28;20451;-71
2023/08/02 04:18:41;;;;;;;410.70;388.77;;;15.40;99.90;;;;;;4973051;28;20553;-72
2023/08/02 04:21:08;;;;;;;405.50;383.37;;;15.40;99.90;;;;;;4986735;28;20446;-72
2023/08/02 04:23:34;;;;;;;424.73;401.33;;;15.40;99.90;;;;;;4975646;28;20459;-72
2023/08/02 04:26:10;;;;;;;429.27;405.60;;;15.40;99.90;;;;;;4978190;28;20455;-72
2023/08/02 04:28:36;;;;;;;430.80;406.80;;;15.40;99.90;;;;;;4989973;28;20449;-72
2023/08/02 04:31:05;;;;;;;434.07;410.23;;;15.40;99.90;;;;;;4977872;28;20577;-71
2023/08/02 04:33:31;;;;;;;478.47;451.77;;;15.40;99.90;;;;;;4988876;28;20798;-72
2023/08/02 04:35:59;;;;;;;557.47;526.27;;;15.40;99.90;;;;;;4978158;28;20818;-72
2023/08/02 04:38:25;;;;;;;661.70;622.83;;;15.40;99.90;;;;;;4989664;28;21077;-71
2023/08/02 04:40:52;;;;;;;801.93;753.27;;;15.30;99.90;;;;;;4992480;28;20454;-70
2023/08/02 04:43:19;;;;;;;863.57;809.07;;;15.30;99.90;;;;;;4992239;28;20454;-69
2023/08/02 04:45:46;;;;;;;882.60;824.37;;;15.30;99.90;;;;;;4992241;28;20454;-70
2023/08/02 04:48:14;;;;;;;901.17;838.87;;;15.20;99.90;;;;;;4983733;28;20457;-70
2023/08/02 04:50:43;;;;;;;902.97;838.53;;;15.30;99.90;;;;;;4974671;28;20467;-69
2023/08/02 04:53:10;;;;;;;902.93;837.47;;;15.30;99.90;;;;;;4974290;28;20454;-69
2023/08/02 04:55:43;;;;;;;913.13;846.67;;;15.30;99.90;;;;;;4982013;28;20457;-69
2023/08/02 04:58:10;;;;;;;913.73;846.67;;;15.30;99.90;;;;;;4979551;28;20810;-69
2023/08/02 05:00:37;;;;;;;908.13;840.30;;;15.30;99.90;;;;;;4977935;28;20456;-69
2023/08/02 05:03:04;;;;;;;907.77;838.73;;;15.30;99.90;;;;;;4978090;28;20534;-69
2023/08/02 05:05:32;;;;;;;910.70;840.50;;;15.30;99.90;;;;;;4975986;28;20459;-70
2023/08/02 05:08:00;;;;;;;906.53;836.53;;;15.40;99.90;;;;;;4978688;28;20460;-69
2023/08/02 05:10:27;;;;;;;911.90;841.47;;;15.40;99.90;;;;;;4979575;28;20535;-69
2023/08/02 05:12:54;;;;;;;911.77;842.50;;;15.50;99.90;;;;;;4990561;28;20522;-69
2023/08/02 05:15:20;;;;;;;912.33;843.53;;;15.50;99.90;;;;;;4976214;28;20454;-69
2023/08/02 05:17:47;;;;;;;902.27;833.57;;;15.60;99.90;;;;;;4987665;28;20549;-69
2023/08/02 05:20:14;;;;;;;906.77;838.43;;;15.60;99.90;;;;;;4982739;28;20454;-69
2023/08/02 05:22:43;;;;;;;895.10;827.40;;;15.70;99.90;;;;;;4986954;28;20529;-69
2023/08/02 05:25:10;;;;;;;905.90;837.63;;;15.70;99.90;;;;;;4985792;28;20895;-68
2023/08/02 05:27:37;;;;;;;913.20;843.17;;;15.70;99.90;;;;;;4983082;28;20462;-68
2023/08/02 05:30:05;;;;;;;905.33;834.57;;;15.70;99.90;;;;;;4983329;28;20550;-68
2023/08/02 05:32:32;;;;;;;897.87;828.23;;;15.70;99.90;;;;;;4984433;28;21008;-68
2023/08/02 05:34:59;;;;;;;907.63;834.87;;;15.70;99.90;;;;;;4983840;28;20461;-68
2023/08/02 05:37:28;;;;;;;898.93;823.83;;;15.70;99.90;;;;;;4985726;28;21050;-68
2023/08/02 05:39:57;;;;;;;901.87;825.27;;;15.70;99.90;;;;;;4984155;28;20953;-68
2023/08/02 05:42:23;;;;;;;908.93;831.00;;;15.70;99.90;;;;;;4987424;28;20527;-68
2023/08/02 05:44:50;;;;;;;910.53;833.80;;;15.70;99.90;;;;;;4986500;28;20459;-68
2023/08/02 05:47:17;;;;;;;904.13;827.20;;;15.70;99.90;;;;;;4982682;28;20462;-68
2023/08/02 05:49:44;;;;;;;905.47;828.03;;;15.70;99.90;;;;;;4990205;28;21026;-68
2023/08/02 05:52:11;;;;;;;902.73;823.97;;;15.80;99.90;;;;;;4986058;28;20471;-68
2023/08/02 05:54:38;;;;;;;900.80;821.37;;;15.80;99.90;;;;;;4985193;28;20959;-68
2023/08/02 05:57:07;;;;;;;897.63;819.10;;;15.90;99.90;;;;;;4982378;28;20546;-68
2023/08/02 05:59:36;;;;;;;911.30;831.00;;;15.90;99.90;;;;;;4978429;28;20487;-68
2023/08/02 06:02:04;;;;;;;907.67;825.47;;;15.90;99.90;;;;;;4977642;28;20455;-67
2023/08/02 06:04:31;;;;;;;923.93;841.50;;;16.00;99.90;;;;;;4978671;28;20546;-68
2023/08/02 06:06:57;;;;;;;924.20;840.20;;;16.00;99.90;;;;;;4986379;28;20451;-68
2023/08/02 06:09:25;;;;;;;929.80;844.93;;;16.00;99.90;;;;;;4983659;28;20450;-68
2023/08/02 06:11:52;;;;;;;928.23;842.70;;;16.10;99.90;;;;;;4993693;28;20501;-68
2023/08/02 06:14:20;;;;;;;953.40;866.63;;;16.10;99.90;;;;;;4987477;28;20951;-68
2023/08/02 06:16:47;;;;;;;960.53;872.20;;;16.10;99.90;;;;;;4983209;28;20830;-68
2023/08/02 06:19:13;;;;;;;959.10;869.80;;;16.10;99.90;;;;;;4988609;28;20813;-67
2023/08/02 06:21:40;;;;;;;986.77;895.47;;;16.20;99.90;;;;;;4993706;28;20462;-68
2023/08/02 06:24:07;;;;;;;965.37;873.20;;;16.20;99.90;;;;;;4989261;28;20463;-68
2023/08/02 06:26:34;;;;;;;953.23;862.23;;;16.20;99.90;;;;;;4984803;28;20463;-68
2023/08/02 06:29:01;;;;;;;963.33;871.27;;;16.20;99.90;;;;;;4983203;28;20454;-68
2023/08/02 06:31:29;;;;;;;981.03;888.07;;;16.20;99.90;;;;;;4981395;28;20461;-68
2023/08/02 06:33:56;;;;;;;968.27;875.37;;;16.20;99.90;;;;;;4981181;28;20665;-69
2023/08/02 06:36:23;;;;;;;953.07;859.50;;;16.20;99.90;;;;;;4975715;28;21015;-68
2023/08/02 06:38:50;;;;;;;961.77;869.07;;;16.20;99.90;;;;;;4976522;28;21010;-68
2023/08/02 06:41:17;;;;;;;978.53;886.30;;;16.20;99.90;;;;;;4993369;28;20464;-68
2023/08/02 06:43:44;;;;;;;970.57;875.87;;;16.20;99.90;;;;;;4992907;28;20468;-68
2023/08/02 06:46:10;;;;;;;960.60;866.83;;;16.30;99.90;;;;;;4974275;28;20465;-68
2023/08/02 06:48:38;;;;;;;954.10;861.23;;;16.20;99.90;;;;;;4974064;28;20451;-66
2023/08/02 06:51:05;;;;;;;940.03;849.33;;;16.20;99.90;;;;;;4984882;28;20446;-66
2023/08/02 06:53:33;;;;;;;978.20;884.30;;;16.10;99.90;;;;;;4975221;28;20986;-67
2023/08/02 06:56:00;;;;;;;994.87;898.97;;;16.20;99.90;;;;;;4983994;28;20458;-66
2023/08/02 06:58:27;;;;;;;994.07;899.17;;;16.30;99.90;;;;;;4975623;28;20465;-67
2023/08/02 07:00:53;;;;;;;992.90;898.43;;;16.40;99.90;;;;;;4984324;28;20461;-67
2023/08/02 07:03:21;;;;;;;1004.53;909.67;;;16.40;99.90;;;;;;4978218;28;20466;-66
2023/08/02 07:05:50;;;;;;;998.67;905.00;;;16.60;99.90;;;;;;4989674;28;20451;-67
2023/08/02 07:08:17;;;;;;;986.93;895.17;;;16.70;99.90;;;;;;4985369;28;20737;-66
2023/08/02 07:10:43;;;;;;;967.60;875.80;;;16.80;99.90;;;;;;4990398;28;20454;-67
2023/08/02 07:13:10;;;;;;;960.30;871.87;;;16.90;99.90;;;;;;4992914;28;20564;-66
2023/08/02 07:15:37;;;;;;;941.07;858.47;;;16.90;99.90;;;;;;4985853;28;20456;-66
2023/08/02 07:18:04;;;;;;;948.83;866.20;;;16.80;99.90;;;;;;4988003;28;20481;-67
2023/08/02 07:20:31;;;;;;;944.00;861.07;;;16.90;99.90;;;;;;4976165;28;20466;-67
2023/08/02 07:22:59;;;;;;;934.20;853.87;;;17.00;99.90;;;;;;4977175;28;20959;-67
2023/08/02 07:25:26;;;;;;;943.27;860.40;;;17.00;99.90;;;;;;4978621;28;20451;-67
2023/08/02 07:27:52;;;;;;;933.90;851.33;;;17.20;99.90;;;;;;4979030;28;20538;-67
2023/08/02 07:30:20;;;;;;;932.03;854.83;;;17.20;99.90;;;;;;4974548;28;20466;-67
2023/08/02 07:32:47;;;;;;;937.23;862.60;;;17.30;99.90;;;;;;4973591;28;20570;-67
2023/08/02 07:35:14;;;;;;;916.87;841.67;;;17.30;99.90;;;;;;4983925;28;20454;-67
2023/08/02 07:37:41;;;;;;;962.03;878.17;;;17.50;99.90;;;;;;4983949;28;20460;-67
2023/08/02 07:40:10;;;;;;;905.70;838.73;;;17.80;99.90;;;;;;4974752;28;20196;-66
2023/08/02 07:42:36;;;;;;;896.90;834.73;;;17.90;99.90;;;;;;4975052;28;20458;-68
2023/08/02 07:45:05;;;;;;;898.30;837.60;;;18.10;99.90;;;;;;4975047;28;20451;-70
2023/08/02 07:47:32;;;;;;;883.90;826.60;;;18.50;99.90;;;;;;4974109;28;20974;-70
2023/08/02 07:49:59;;;;;;;831.40;784.30;;;18.90;99.90;;;;;;4973093;28;20455;-71
2023/08/02 07:52:26;;;;;;;778.83;738.53;;;19.10;99.90;;;;;;4973495;28;20490;-72
2023/08/02 07:54:54;;;;;;;620.53;592.97;;;19.40;99.90;;;;;;4973435;28;20456;-70
2023/08/02 07:57:23;;;;;;;660.37;630.87;;;19.60;99.90;;;;;;4973457;28;20458;-70
2023/08/02 07:59:50;;;;;;;467.60;450.13;;;20.00;99.90;;;;;;4973248;28;20459;-70
2023/08/02 08:02:17;;;;;;;384.03;370.83;;;20.10;99.90;;;;;;4973096;28;21042;-70
2023/08/02 08:04:43;;;;;;;185.90;179.67;;;20.20;99.90;;;;;;4973215;28;20451;-70
2023/08/02 08:07:10;;;;;;;177.43;171.33;;;20.20;99.90;;;;;;4973215;28;20462;-71
2023/08/02 08:09:37;;;;;;;153.27;148.00;;;20.10;99.90;;;;;;4973242;28;20612;-71
2023/08/02 08:12:05;;;;;;;191.30;184.77;;;20.20;99.90;;;;;;4973001;28;21069;-70
2023/08/02 08:14:34;;;;;;;236.30;228.73;;;20.30;99.90;;;;;;4973034;28;20483;-69
2023/08/02 08:17:01;;;;;;;179.97;173.83;;;20.20;99.90;;;;;;4973062;28;20530;-70
2023/08/02 08:19:28;;;;;;;169.87;163.93;;;20.20;99.90;;;;;;4972845;28;20550;-70
2023/08/02 08:21:55;;;;;;;149.63;144.50;;;20.10;99.90;;;;;;4972996;28;20486;-71
2023/08/02 08:24:22;;;;;;;198.13;191.63;;;20.00;99.90;;;;;;4973088;28;20455;-70
2023/08/02 08:26:50;;;;;;;205.53;198.60;;;19.90;99.90;;;;;;4973158;28;20864;-70
2023/08/02 08:29:17;;;;;;;257.83;249.60;;;19.70;99.90;;;;;;4976452;28;20804;-70
2023/08/02 08:31:45;;;;;;;368.03;355.23;;;19.50;99.90;;;;;;4976561;28;20451;-71
2023/08/02 08:34:13;;;;;;;445.60;428.53;;;19.50;99.90;;;;;;4976847;28;20489;-71
2023/08/02 08:36:40;;;;;;;633.40;605.63;;;19.30;99.90;;;;;;4976823;28;20521;-70
2023/08/02 08:39:07;;;;;;;623.57;595.97;;;19.30;99.90;;;;;;4976674;28;20461;-70
2023/08/02 08:41:33;;;;;;;722.80;687.57;;;19.10;99.90;;;;;;4976463;28;20458;-70
2023/08/02 08:44:01;;;;;;;829.63;785.13;;;19.10;99.90;;;;;;4976511;28;20446;-71
2023/08/02 08:46:31;;;;;;;844.70;797.10;;;19.20;99.90;;;;;;4976764;28;20451;-71
2023/08/02 08:49:00;;;;;;;838.17;791.07;;;19.40;99.90;;;;;;4976527;28;20458;-71
2023/08/02 08:51:27;;;;;;;848.90;799.33;;;19.40;99.90;;;;;;4976583;28;20542;-71
2023/08/02 08:53:55;;;;;;;787.40;744.67;;;19.60;99.90;;;;;;4976360;28;20529;-69
2023/08/02 08:56:24;;;;;;;819.50;774.70;;;19.70;99.90;;;;;;4976430;28;20766;-68
2023/08/02 08:58:53;;;;;;;815.83;774.10;;;19.70;99.90;;;;;;4976193;28;20458;-68
2023/08/02 09:01:21;;;;;;;788.67;751.13;;;19.70;99.90;;;;;;4976225;28;20455;-68
2023/08/02 09:03:48;;;;;;;797.87;757.37;;;19.50;99.90;;;;;;4976150;28;20444;-67
2023/08/02 09:06:16;;;;;;;824.40;781.20;;;19.30;99.90;;;;;;4976360;28;20455;-67
2023/08/02 09:08:47;;;;;;;840.77;794.20;;;19.20;99.90;;;;;;4976152;28;20450;-67
2023/08/02 09:11:15;;;;;;;870.97;817.83;;;19.10;99.90;;;;;;4975813;28;20466;-67
2023/08/02 09:13:42;;;;;;;877.70;820.00;;;19.10;99.90;;;;;;4976228;28;20570;-67
2023/08/02 09:16:10;;;;;;;879.60;821.53;;;19.40;99.90;;;;;;4976201;28;20451;-67
2023/08/02 09:18:39;;;;;;;860.37;807.90;;;19.70;99.90;;;;;;4975788;28;20673;-67
2023/08/02 09:21:07;;;;;;;839.80;789.47;;;19.90;99.90;;;;;;4975734;28;20451;-67
2023/08/02 09:23:35;;;;;;;762.33;721.33;;;20.00;99.90;;;;;;4975739;28;20447;-68
2023/08/02 09:26:13;;;;;;;773.77;731.60;;;20.10;99.90;;;;;;4975820;28;20451;-68
2023/08/02 09:28:40;;;;;;;763.33;723.70;;;20.20;99.90;;;;;;4975716;28;20461;-68
2023/08/02 09:31:17;;;;;;;703.77;670.23;;;20.50;99.90;;;;;;4975483;28;20647;-68
2023/08/02 09:33:52;;;;;;;661.43;632.03;;;20.70;99.90;;;;;;4975598;28;20474;-69
2023/08/02 09:36:23;;;;;;;558.00;535.13;;;20.70;99.90;;;;;;4975511;28;20459;-68
2023/08/02 09:39:03;;;;;;;498.20;478.90;;;20.60;99.90;;;;;;4975248;28;20486;-69
2023/08/02 09:41:31;;;;;;;519.60;499.13;;;20.70;99.90;;;;;;4975432;28;20455;-68
2023/08/02 09:43:58;;;;;;;567.20;543.80;;;20.80;99.90;;;;;;4975616;28;20458;-68
2023/08/02 09:46:29;;;;;;;566.83;543.37;;;20.90;99.90;;;;;;4975316;28;20970;-68
2023/08/02 09:48:56;;;;;;;387.63;374.03;;;21.10;99.90;;;;;;4975623;28;20550;-68
2023/08/02 09:51:37;;;;;;;323.33;312.83;;;21.30;99.90;;;;;;4975293;28;20837;-68
2023/08/02 09:54:05;;;;;;;324.27;313.77;;;21.30;99.90;;;;;;4975446;28;20565;-69
2023/08/02 09:56:34;;;;;;;297.60;288.40;;;21.20;99.90;;;;;;4975329;28;20455;-68
2023/08/02 09:59:02;;;;;;;315.73;306.00;;;20.90;99.90;;;;;;4975113;28;20861;-67
2023/08/02 10:01:30;;;;;;;408.17;394.77;;;20.70;99.90;;;;;;4975161;28;20463;-67
2023/08/02 10:03:59;;;;;;;609.83;589.30;;;20.50;99.90;;;;;;4975332;28;20451;-65
2023/08/02 10:06:31;;;;;;;723.57;696.90;;;20.20;99.90;;;;;;4974980;28;20462;-66
2023/08/02 10:09:04;;;;;;;859.50;815.47;;;19.80;99.90;;;;;;4989995;28;20473;-66
2023/08/02 10:11:34;;;;;;;880.73;831.77;;;19.70;99.90;;;;;;4991217;28;20457;-66
2023/08/02 10:14:04;;;;;;;890.93;838.50;;;19.80;99.90;;;;;;4994380;28;20479;-67
2023/08/02 10:16:32;;;;;;;890.17;835.87;;;20.00;99.90;;;;;;4994616;28;20857;-67
2023/08/02 10:19:01;;;;;;;876.30;824.23;;;20.30;99.90;;;;;;4994095;28;20458;-67
2023/08/02 10:21:31;;;;;;;818.97;773.97;;;20.60;99.90;;;;;;4988723;28;20455;-68
2023/08/02 10:24:00;;;;;;;804.53;758.83;;;20.90;99.90;;;;;;4975744;28;20947;-68
2023/08/02 10:26:29;;;;;;;637.43;606.80;;;21.70;99.90;;;;;;4977591;28;20487;-68
2023/08/02 10:28:58;;;;;;;667.75;632.95;;;22.30;99.90;;;;;;4993454;28;20460;-64
2023/08/02 10:31:25;;;;;;;285.97;276.17;;;22.80;99.90;;;;;;4978880;28;20196;-64
2023/08/02 10:33:52;;;;;;;96.20;92.70;;;23.00;99.90;;;;;;4974895;28;20483;-64
2023/08/02 10:36:19;;;;;;;104.90;101.40;;;23.00;99.90;;;;;;4978552;28;20451;-64
2023/08/02 10:38:52;;;;;;;42.67;41.03;;;23.00;99.90;;;;;;4994320;28;20948;-64
2023/08/02 10:41:21;;;;;;;51.37;49.43;;;23.10;99.90;;;;;;4989354;28;20467;-64
2023/08/02 10:44:13;;;;;;;10.90;10.30;;;23.30;99.90;;;;;;4977171;28;20461;-64
2023/08/02 10:46:39;;;;;;;14.50;13.80;;;23.20;99.90;;;;;;4980076;28;20455;-66
2023/08/02 10:49:38;;;;;;;13.30;12.60;;;23.40;99.90;;;;;;4983689;28;20847;-68
2023/08/02 10:52:25;;;;;;;8.90;8.30;;;24.20;99.90;;;;;;4973416;28;20455;-68
2023/08/02 10:55:15;;;;;;;7.37;6.87;;;24.40;99.90;;;;;;4973984;28;20518;-67
2023/08/02 10:58:05;;;;;;;5.73;5.23;;;24.90;99.20;;;;;;4974415;28;20534;-67
2023/08/02 11:00:34;;;;;;;4.00;2.27;;;24.30;99.90;;;;;;4974085;28;20483;-68
2023/08/02 11:03:01;;;;;;;3.90;1.90;;;23.60;99.90;;;;;;4974104;28;21005;-68
2023/08/02 11:05:43;;;;;;;4.20;2.90;;;23.60;99.90;;;;;;4974033;28;20457;-68
2023/08/02 11:08:10;;;;;;;4.20;2.60;;;23.80;99.90;;;;;;4974007;28;20956;-68
2023/08/02 11:10:48;;;;;;;4.20;2.43;;;23.60;99.90;;;;;;4973959;28;20870;-68
2023/08/02 11:13:15;;;;;;;5.27;4.77;;;23.30;99.90;;;;;;4973932;28;20835;-67
2023/08/02 11:15:43;;;;;;;7.17;6.67;;;23.10;99.90;;;;;;4973978;28;20458;-68
2023/08/02 11:18:10;;;;;;;9.10;8.50;;;22.80;99.90;;;;;;4973709;28;20793;-68
2023/08/02 11:20:38;;;;;;;10.63;10.03;;;22.90;99.90;;;;;;4973532;28;20463;-68
2023/08/02 11:23:23;;;;;;;14.17;13.37;;;23.10;99.90;;;;;;4974010;28;20522;-67
2023/08/02 11:25:50;;;;;;;11.23;10.57;;;23.50;99.90;;;;;;4973787;28;20966;-67
2023/08/02 11:28:17;;;;;;;5.30;4.80;;;23.90;99.90;;;;;;4973678;28;20483;-67
2023/08/02 11:30:50;;;;;;;4.03;2.73;;;23.80;99.90;;;;;;4973410;28;20986;-67
2023/08/02 11:33:17;;;;;;;6.83;2.60;;;23.80;99.90;;;;;;4973918;28;20475;-67
2023/08/02 11:35:44;;;;;;;4.27;3.10;;;23.90;99.90;;;;;;4973797;28;20526;-67
2023/08/02 11:38:13;;;;;;;5.67;2.60;;;24.20;99.90;;;;;;4973512;28;20455;-67
2023/08/02 11:40:40;;;;;;;3.70;1.40;;;24.20;99.90;;;;;;4973470;28;20486;-67
2023/08/02 11:43:09;;;;;;;4.20;1.80;;;24.20;99.70;;;;;;4973476;28;20451;-67
2023/08/02 11:45:36;;;;;;;4.50;1.60;;;24.00;99.90;;;;;;4973796;28;20455;-67
2023/08/02 11:48:05;;;;;;;3.90;2.40;;;23.60;99.90;;;;;;4973648;28;20463;-67
2023/08/02 11:50:34;;;;;;;4.40;2.83;;;23.40;99.90;;;;;;4973386;28;20455;-67
2023/08/02 11:53:05;;;;;;;4.90;4.17;;;23.40;99.90;;;;;;4973372;28;20487;-67
2023/08/02 11:55:35;;;;;;;5.90;5.30;;;24.10;99.90;;;;;;4973282;28;20494;-68
2023/08/02 11:58:03;;;;;;;5.93;3.23;;;25.10;99.90;;;;;;4973544;28;20482;-67
2023/08/02 12:00:31;;;;;;;3.80;1.20;;;25.90;98.10;;;;;;4975085;28;20826;-67
2023/08/02 12:03:09;;;;;;;3.60;1.00;;;26.00;97.50;;;;;;4988418;28;20454;-68
2023/08/02 12:05:36;;;;;;;4.77;1.10;;;25.50;97.30;;;;;;4996684;28;20454;-68
2023/08/02 12:08:11;;;;;;;4.93;1.20;;;25.30;97.30;;;;;;4996597;28;20553;-67
2023/08/02 12:10:39;;;;;;;4.20;1.30;;;24.90;97.50;;;;;;4996345;28;20453;-67
2023/08/02 12:13:14;;;;;;;3.80;1.20;;;24.50;97.00;;;;;;4997019;28;20450;-67
2023/08/02 12:15:44;;;;;;;3.60;1.10;;;24.20;96.80;;;;;;4996982;28;20446;-67
2023/08/02 12:18:12;;;;;;;3.70;1.00;;;24.20;98.50;;;;;;4996466;28;20844;-67